createdAt,value
2022-08-17T00:01:27.924Z,95632.44
2022-08-17T00:03:55.808Z,95635.88
2022-08-17T00:06:25.967Z,95625.88
2022-08-17T00:09:01.167Z,95630.06
2022-08-17T00:11:31.240Z,95623.41
2022-08-17T00:14:05.219Z,95628.66
2022-08-17T00:16:55.611Z,95620.78
2022-08-17T00:19:25.756Z,95615.38
2022-08-17T00:22:32.942Z,95636.13
2022-08-17T00:24:43.025Z,95619.03
2022-08-17T00:27:09.778Z,95620.78
2022-08-17T00:29:36.223Z,95619.16
2022-08-17T00:33:12.527Z,95610.25
2022-08-17T00:34:50.105Z,95607.75
2022-08-17T00:37:17.008Z,95604.84
2022-08-17T00:39:43.765Z,95609.34
2022-08-17T00:42:19.159Z,95610.16
2022-08-17T00:44:46.085Z,95606.63
2022-08-17T00:47:12.518Z,95609.22
2022-08-17T00:49:39.459Z,95604.06
2022-08-17T00:52:15.361Z,95602.97
2022-08-17T00:54:45.461Z,95597.28
2022-08-17T00:57:38.281Z,95599.84
2022-08-17T01:00:19.881Z,95604.69
2022-08-17T01:02:47.724Z,95596.84
2022-08-17T01:05:20.993Z,95606.31
2022-08-17T01:07:50.718Z,95606.31
2022-08-17T01:11:00.423Z,95604.66
2022-08-17T01:13:10.639Z,95600.13
2022-08-17T01:15:40.676Z,95605.22
2022-08-17T01:18:10.304Z,95592.59
2022-08-17T01:20:48.140Z,95597.09
2022-08-17T01:23:18.536Z,95594.34
2022-08-17T01:25:52.708Z,95595.53
2022-08-17T01:28:53.227Z,95602.41
2022-08-17T01:31:08.644Z,95595.44
2022-08-17T01:33:35.938Z,95606.19
2022-08-17T01:36:04.411Z,95595.03
2022-08-17T01:38:32.248Z,95608.03
2022-08-17T01:41:03.515Z,95597.81
2022-08-17T01:43:35.025Z,95591.91
2022-08-17T01:46:03.704Z,95596.09
2022-08-17T01:48:33.219Z,95600.63
2022-08-17T01:51:01.000Z,95596.16
2022-08-17T01:53:34.725Z,95591.34
2022-08-17T01:56:08.358Z,95594.22
2022-08-17T01:58:35.685Z,95588.25
2022-08-17T02:01:03.946Z,95591.19
2022-08-17T02:03:30.566Z,95599.66
2022-08-17T02:05:58.047Z,95586.81
2022-08-17T02:08:37.324Z,95585.13
2022-08-17T02:11:12.097Z,95583.41
2022-08-17T02:13:39.540Z,95586.81
2022-08-17T02:16:06.254Z,95581.63
2022-08-17T02:18:33.448Z,95581.16
2022-08-17T02:21:00.460Z,95576.00
2022-08-17T02:23:30.273Z,95577.91
2022-08-17T02:26:00.323Z,95578.09
2022-08-17T02:28:28.674Z,95570.34
2022-08-17T02:31:02.597Z,95583.44
2022-08-17T02:33:43.053Z,95579.94
2022-08-17T02:36:11.952Z,95577.44
2022-08-17T02:38:39.856Z,95577.13
2022-08-17T02:41:06.752Z,95571.94
2022-08-17T02:43:33.577Z,95567.59
2022-08-17T02:46:00.078Z,95551.91
2022-08-17T02:48:28.038Z,95556.47
2022-08-17T02:50:58.319Z,95561.94
2022-08-17T02:53:25.706Z,95560.00
2022-08-17T02:55:52.579Z,95565.66
2022-08-17T02:58:34.453Z,95563.09
2022-08-17T03:01:04.702Z,95560.34
2022-08-17T03:03:31.636Z,95562.75
2022-08-17T03:05:58.092Z,95569.38
2022-08-17T03:08:25.349Z,95567.59
2022-08-17T03:10:52.396Z,95569.22
2022-08-17T03:13:19.289Z,95567.56
2022-08-17T03:15:46.796Z,95573.03
2022-08-17T03:18:24.932Z,95571.91
2022-08-17T03:20:57.950Z,95576.72
2022-08-17T03:23:25.664Z,95586.25
2022-08-17T03:25:53.902Z,95587.44
2022-08-17T03:28:21.961Z,95583.22
2022-08-17T03:30:49.276Z,95579.44
2022-08-17T03:33:16.125Z,95570.31
2022-08-17T03:35:43.892Z,95573.88
2022-08-17T03:38:11.798Z,95579.31
2022-08-17T03:40:57.221Z,95588.53
2022-08-17T03:43:26.653Z,95593.78
2022-08-17T03:46:28.486Z,95600.13
2022-08-17T03:49:16.695Z,95600.84
2022-08-17T03:52:01.588Z,95596.75
2022-08-17T03:54:47.279Z,95592.03
2022-08-17T03:57:14.024Z,95591.19
2022-08-17T03:59:40.897Z,95583.44
2022-08-17T04:02:19.521Z,95579.06
2022-08-17T04:04:46.501Z,95587.47
2022-08-17T04:07:13.289Z,95582.75
2022-08-17T04:09:40.051Z,95592.84
2022-08-17T04:12:06.610Z,95592.94
2022-08-17T04:14:36.706Z,95586.81
2022-08-17T04:17:18.808Z,95598.13
2022-08-17T04:19:47.231Z,95602.50
2022-08-17T04:22:30.291Z,95597.88
2022-08-17T04:25:01.039Z,95602.16
2022-08-17T04:27:27.420Z,95599.66
2022-08-17T04:29:55.794Z,95611.22
2022-08-17T04:32:25.165Z,95610.88
2022-08-17T04:35:10.026Z,95617.41
2022-08-17T04:37:36.818Z,95616.22
2022-08-17T04:40:22.832Z,95614.59
2022-08-17T04:43:07.815Z,95616.94
2022-08-17T04:45:38.825Z,95616.06
2022-08-17T04:48:05.832Z,95619.44
2022-08-17T04:50:35.143Z,95612.81
2022-08-17T04:53:02.139Z,95616.59
2022-08-17T04:55:28.941Z,95618.81
2022-08-17T04:57:55.999Z,95616.66
2022-08-17T05:00:25.544Z,95626.19
2022-08-17T05:02:55.256Z,95622.19
2022-08-17T05:05:27.209Z,95620.81
2022-08-17T05:07:57.039Z,95626.06
2022-08-17T05:10:29.807Z,95616.84
2022-08-17T05:13:13.233Z,95623.97
2022-08-17T05:15:44.842Z,95625.00
2022-08-17T05:18:13.147Z,95625.59
2022-08-17T05:20:40.626Z,95629.88
2022-08-17T05:23:10.649Z,95637.06
2022-08-17T05:25:45.688Z,95633.94
2022-08-17T05:28:16.114Z,95638.88
2022-08-17T05:30:43.863Z,95636.66
2022-08-17T05:33:34.887Z,95630.75
2022-08-17T05:36:03.148Z,95630.03
2022-08-17T05:38:30.668Z,95621.84
2022-08-17T05:40:59.262Z,95625.47
2022-08-17T05:43:31.754Z,95622.66
2022-08-17T05:46:10.730Z,95607.19
2022-08-17T05:48:40.509Z,95608.34
2022-08-17T05:51:27.777Z,95611.25
2022-08-17T05:54:06.052Z,95618.44
2022-08-17T05:57:00.489Z,95622.59
2022-08-17T05:59:32.783Z,95624.00
2022-08-17T06:02:10.131Z,95629.88
2022-08-17T06:04:57.958Z,95628.56
2022-08-17T06:07:42.485Z,95627.00
2022-08-17T06:10:38.725Z,95620.91
2022-08-17T06:13:16.500Z,95625.50
2022-08-17T06:16:34.201Z,95624.25
2022-08-17T06:19:39.428Z,95630.84
2022-08-17T06:22:10.141Z,95626.34
2022-08-17T06:24:48.341Z,95635.09
2022-08-17T06:27:38.953Z,95627.69
2022-08-17T06:30:13.299Z,95625.47
2022-08-17T06:32:44.104Z,95642.31
2022-08-17T06:35:14.220Z,95650.56
2022-08-17T06:37:56.288Z,95663.53
2022-08-17T06:40:51.997Z,95657.97
2022-08-17T06:43:24.432Z,95657.19
2022-08-17T06:45:59.279Z,95663.09
2022-08-17T06:48:48.308Z,95662.56
2022-08-17T06:51:23.852Z,95680.22
2022-08-17T06:53:59.617Z,95693.56
2022-08-17T06:56:53.511Z,95690.44
2022-08-17T06:59:47.173Z,95687.16
2022-08-17T07:02:29.327Z,95687.13
2022-08-17T07:05:15.480Z,95690.50
2022-08-17T07:08:15.263Z,95684.53
2022-08-17T07:10:47.961Z,95678.91
2022-08-17T07:13:29.696Z,95686.56
2022-08-17T07:16:13.071Z,95677.84
2022-08-17T07:18:39.994Z,95671.91
2022-08-17T07:21:19.205Z,95669.56
2022-08-17T07:24:03.877Z,95664.25
2022-08-17T07:26:30.316Z,95659.84
2022-08-17T07:28:57.198Z,95645.97
2022-08-17T07:31:26.801Z,95646.69
2022-08-17T07:34:19.383Z,95651.97
2022-08-17T07:36:45.796Z,95644.31
2022-08-17T07:39:12.245Z,95643.19
2022-08-17T07:41:57.646Z,95648.47
2022-08-17T07:44:27.109Z,95650.06
2022-08-17T07:47:13.327Z,95651.41
2022-08-17T07:49:44.540Z,95651.44
2022-08-17T07:52:51.828Z,95650.63
2022-08-17T07:55:33.279Z,95651.16
2022-08-17T07:58:00.054Z,95650.34
2022-08-17T08:00:32.653Z,95646.78
2022-08-17T08:03:17.709Z,95652.22
2022-08-17T08:05:58.032Z,95639.06
2022-08-17T08:08:26.249Z,95656.03
2022-08-17T08:11:12.028Z,95654.84
2022-08-17T08:13:42.542Z,95661.59
2022-08-17T08:16:29.608Z,95656.06
2022-08-17T08:19:02.624Z,95653.97
2022-08-17T08:22:06.489Z,95654.09
2022-08-17T08:25:28.874Z,95651.41
2022-08-17T08:28:17.089Z,95642.78
2022-08-17T08:30:49.495Z,95644.53
2022-08-17T08:33:37.968Z,95659.19
2022-08-17T08:37:15.892Z,95646.69
2022-08-17T08:39:30.342Z,95642.25
2022-08-17T08:42:07.582Z,95649.00
2022-08-17T08:45:07.829Z,95655.78
2022-08-17T08:47:53.881Z,95648.34
2022-08-17T08:50:43.173Z,95647.00
2022-08-17T08:53:25.141Z,95642.25
2022-08-17T08:56:11.827Z,95644.22
2022-08-17T08:58:42.458Z,95648.47
2022-08-17T09:01:24.569Z,95653.31
2022-08-17T09:04:23.184Z,95654.03
2022-08-17T09:07:12.592Z,95644.66
2022-08-17T09:09:46.369Z,95631.06
2022-08-17T09:12:29.761Z,95627.94
2022-08-17T09:15:13.792Z,95625.72
2022-08-17T09:18:03.671Z,95636.78
2022-08-17T09:20:48.097Z,95627.69
2022-08-17T09:23:42.069Z,95622.28
2022-08-17T09:26:23.916Z,95617.88
2022-08-17T09:28:52.898Z,95609.00
2022-08-17T09:31:29.959Z,95618.06
2022-08-17T09:34:02.653Z,95627.50
2022-08-17T09:36:40.825Z,95625.75
2022-08-17T09:39:15.668Z,95630.00
2022-08-17T09:42:19.519Z,95634.94
2022-08-17T09:45:02.814Z,95650.63
2022-08-17T09:47:38.337Z,95649.47
2022-08-17T09:50:15.882Z,95655.44
2022-08-17T09:52:43.372Z,95655.63
2022-08-17T09:55:09.803Z,95655.78
2022-08-17T09:58:02.409Z,95668.28
2022-08-17T10:00:35.704Z,95659.91
2022-08-17T10:03:10.419Z,95650.69
2022-08-17T10:05:46.260Z,95658.41
2022-08-17T10:08:21.826Z,95655.63
2022-08-17T10:11:05.577Z,95667.00
2022-08-17T10:13:40.408Z,95661.56
2022-08-17T10:16:52.023Z,95673.38
2022-08-17T10:19:48.745Z,95672.63
2022-08-17T10:22:56.499Z,95669.38
2022-08-17T10:25:54.667Z,95659.19
2022-08-17T10:28:29.440Z,95666.75
2022-08-17T10:31:30.996Z,95667.56
2022-08-17T10:34:34.175Z,95682.47
2022-08-17T10:37:44.534Z,95679.38
2022-08-17T10:40:24.491Z,95675.16
2022-08-17T10:43:05.125Z,95688.44
2022-08-17T10:46:09.477Z,95670.13
2022-08-17T10:49:15.255Z,95685.16
2022-08-17T10:51:41.898Z,95677.09
2022-08-17T10:54:35.004Z,95671.97
2022-08-17T10:57:01.452Z,95676.34
2022-08-17T10:59:50.716Z,95682.31
2022-08-17T11:02:28.413Z,95686.94
2022-08-17T11:05:00.885Z,95684.34
2022-08-17T11:08:08.002Z,95684.16
2022-08-17T11:10:51.919Z,95672.31
2022-08-17T11:13:44.870Z,95680.13
2022-08-17T11:16:29.975Z,95674.38
2022-08-17T11:19:13.657Z,95678.66
2022-08-17T11:21:50.346Z,95671.78
2022-08-17T11:24:20.868Z,95675.50
2022-08-17T11:27:20.516Z,95661.06
2022-08-17T11:29:59.521Z,95669.97
2022-08-17T11:32:47.084Z,95662.41
2022-08-17T11:35:21.316Z,95654.09
2022-08-17T11:37:59.213Z,95661.28
2022-08-17T11:40:49.005Z,95664.22
2022-08-17T11:43:28.984Z,95667.31
2022-08-17T11:46:13.282Z,95674.91
2022-08-17T11:49:08.961Z,95683.53
2022-08-17T11:52:01.869Z,95673.00
2022-08-17T11:54:34.951Z,95680.50
2022-08-17T11:57:27.165Z,95678.59
2022-08-17T11:59:57.706Z,95674.84
2022-08-17T12:02:32.540Z,95673.56
2022-08-17T12:05:15.425Z,95677.44
2022-08-17T12:08:04.613Z,95674.94
2022-08-17T12:10:36.742Z,95679.88
2022-08-17T12:13:13.461Z,95678.53
2022-08-17T12:15:50.411Z,95675.22
2022-08-17T12:18:21.273Z,95672.53
2022-08-17T12:21:04.303Z,95680.91
2022-08-17T12:23:52.290Z,95689.34
2022-08-17T12:26:32.746Z,95680.19
2022-08-17T12:29:04.027Z,95679.44
2022-08-17T12:31:43.627Z,95691.34
2022-08-17T12:34:21.689Z,95690.69
2022-08-17T12:36:51.665Z,95694.03
2022-08-17T12:39:21.880Z,95704.75
2022-08-17T12:41:52.693Z,95700.34
2022-08-17T12:44:28.704Z,95696.31
2022-08-17T12:47:19.425Z,95698.56
2022-08-17T12:49:51.312Z,95692.31
2022-08-17T12:52:24.943Z,95686.28
2022-08-17T12:54:59.536Z,95695.34
2022-08-17T12:57:34.908Z,95691.13
2022-08-17T13:00:30.363Z,95687.47
2022-08-17T13:03:13.505Z,95676.41
2022-08-17T13:05:43.516Z,95685.91
2022-08-17T13:08:20.313Z,95689.19
2022-08-17T13:11:05.072Z,95698.06
2022-08-17T13:13:37.479Z,95696.19
2022-08-17T13:16:09.421Z,95693.16
2022-08-17T13:18:50.638Z,95694.09
2022-08-17T13:21:26.970Z,95690.13
2022-08-17T13:24:10.834Z,95686.13
2022-08-17T13:26:42.027Z,95674.56
2022-08-17T13:29:19.783Z,95657.25
2022-08-17T13:31:52.816Z,95661.06
2022-08-17T13:34:27.184Z,95661.41
2022-08-17T13:37:32.730Z,95657.81
2022-08-17T13:40:22.184Z,95653.47
2022-08-17T13:42:52.830Z,95658.44
2022-08-17T13:45:35.624Z,95651.97
2022-08-17T13:48:12.537Z,95656.25
2022-08-17T13:51:00.030Z,95638.72
2022-08-17T13:53:33.122Z,95644.22
2022-08-17T13:56:02.804Z,95626.06
2022-08-17T13:58:32.963Z,95640.91
2022-08-17T14:01:32.138Z,95634.44
2022-08-17T14:04:00.456Z,95640.97
2022-08-17T14:06:52.344Z,95644.94
2022-08-17T14:09:20.426Z,95635.66
2022-08-17T14:11:48.617Z,95644.19
2022-08-17T14:14:16.443Z,95636.63
2022-08-17T14:16:43.004Z,95620.28
2022-08-17T14:19:14.600Z,95620.28
2022-08-17T14:21:43.944Z,95625.31
2022-08-17T14:24:30.127Z,95622.00
2022-08-17T14:26:57.773Z,95614.91
2022-08-17T14:29:27.986Z,95604.31
2022-08-17T14:31:56.860Z,95592.66
2022-08-17T14:34:24.586Z,95594.94
2022-08-17T14:36:52.105Z,95597.47
2022-08-17T14:39:20.245Z,95585.31
2022-08-17T14:41:47.444Z,95589.31
2022-08-17T14:44:16.181Z,95601.84
2022-08-17T14:46:45.158Z,95613.16
2022-08-17T14:49:13.191Z,95605.31
2022-08-17T14:51:43.895Z,95615.53
2022-08-17T14:54:11.971Z,95610.72
2022-08-17T14:57:22.819Z,95615.50
2022-08-17T14:59:45.773Z,95601.03
2022-08-17T15:02:13.086Z,95605.25
2022-08-17T15:04:44.873Z,95609.41
2022-08-17T15:07:12.297Z,95611.75
2022-08-17T15:09:38.925Z,95617.22
2022-08-17T15:12:06.573Z,95618.34
2022-08-17T15:14:35.642Z,95618.81
2022-08-17T15:17:03.676Z,95616.22
2022-08-17T15:19:30.701Z,95617.47
2022-08-17T15:21:57.155Z,95602.53
2022-08-17T15:24:24.075Z,95606.16
2022-08-17T15:26:51.304Z,95608.66
2022-08-17T15:29:17.665Z,95614.16
2022-08-17T15:31:44.521Z,95604.09
2022-08-17T15:34:11.435Z,95616.44
2022-08-17T15:36:37.883Z,95619.03
2022-08-17T15:39:07.681Z,95610.84
2022-08-17T15:41:34.681Z,95605.66
2022-08-17T15:44:01.063Z,95613.19
2022-08-17T15:46:27.490Z,95606.16
2022-08-17T15:48:59.247Z,95607.78
2022-08-17T15:51:31.085Z,95606.28
2022-08-17T15:54:04.262Z,95609.00
2022-08-17T15:56:43.992Z,95602.31
2022-08-17T15:59:10.348Z,95593.78
2022-08-17T16:03:01.234Z,95591.06
2022-08-17T16:04:29.722Z,95590.66
2022-08-17T16:06:57.273Z,95589.66
2022-08-17T16:09:23.664Z,95581.88
2022-08-17T16:11:52.150Z,95587.50
2022-08-17T16:14:23.201Z,95584.63
2022-08-17T16:16:50.729Z,95584.19
2022-08-17T16:19:17.136Z,95583.38
2022-08-17T16:21:43.576Z,95578.94
2022-08-17T16:24:13.717Z,95581.09
2022-08-17T16:26:42.133Z,95582.59
2022-08-17T16:29:08.640Z,95573.38
2022-08-17T16:31:37.954Z,95574.28
2022-08-17T16:34:16.813Z,95578.38
2022-08-17T16:36:51.836Z,95572.25
2022-08-17T16:39:27.590Z,95556.28
2022-08-17T16:41:56.347Z,95547.88
2022-08-17T16:44:22.950Z,95549.56
2022-08-17T16:46:50.105Z,95549.25
2022-08-17T16:49:36.025Z,95544.09
2022-08-17T16:52:10.432Z,95538.63
2022-08-17T16:54:39.323Z,95535.31
2022-08-17T16:57:05.762Z,95535.06
2022-08-17T16:59:41.893Z,95531.06
2022-08-17T17:02:15.435Z,95536.50
2022-08-17T17:04:57.872Z,95534.47
2022-08-17T17:07:46.069Z,95540.13
2022-08-17T17:10:15.315Z,95534.88
2022-08-17T17:13:03.651Z,95532.63
2022-08-17T17:15:42.164Z,95531.50
2022-08-17T17:18:12.618Z,95527.78
2022-08-17T17:20:54.543Z,95528.25
2022-08-17T17:23:30.095Z,95525.59
2022-08-17T17:26:10.871Z,95521.16
2022-08-17T17:28:42.959Z,95520.25
2022-08-17T17:31:19.427Z,95512.44
2022-08-17T17:33:52.967Z,95511.63
2022-08-17T17:36:48.209Z,95501.06
2022-08-17T17:39:26.189Z,95512.66
2022-08-17T17:41:59.881Z,95507.44
2022-08-17T17:44:32.550Z,95506.38
2022-08-17T17:47:01.167Z,95513.47
2022-08-17T17:49:35.709Z,95513.16
2022-08-17T17:52:18.393Z,95516.88
2022-08-17T17:55:10.730Z,95511.88
2022-08-17T17:57:54.756Z,95513.72
2022-08-17T18:00:42.073Z,95523.66
2022-08-17T18:03:19.543Z,95516.50
2022-08-17T18:06:05.395Z,95513.16
2022-08-17T18:08:37.366Z,95511.28
2022-08-17T18:11:41.811Z,95519.13
2022-08-17T18:14:19.820Z,95519.75
2022-08-17T18:16:54.103Z,95531.88
2022-08-17T18:19:21.280Z,95524.63
2022-08-17T18:21:54.622Z,95526.97
2022-08-17T18:24:37.982Z,95525.16
2022-08-17T18:27:20.221Z,95533.09
2022-08-17T18:29:48.460Z,95532.97
2022-08-17T18:32:27.123Z,95523.47
2022-08-17T18:35:11.118Z,95516.53
2022-08-17T18:37:48.754Z,95512.78
2022-08-17T18:40:19.390Z,95524.94
2022-08-17T18:43:02.777Z,95526.97
2022-08-17T18:45:47.159Z,95532.25
2022-08-17T18:48:49.383Z,95546.31
2022-08-17T18:51:40.468Z,95540.19
2022-08-17T18:54:14.025Z,95540.31
2022-08-17T18:56:52.857Z,95542.94
2022-08-17T18:59:22.520Z,95534.84
2022-08-17T19:02:22.122Z,95526.91
2022-08-17T19:05:03.620Z,95532.22
2022-08-17T19:07:32.014Z,95538.44
2022-08-17T19:10:06.337Z,95549.34
2022-08-17T19:12:49.876Z,95542.13
2022-08-17T19:15:25.067Z,95535.53
2022-08-17T19:18:00.087Z,95539.72
2022-08-17T19:20:38.170Z,95530.81
2022-08-17T19:23:17.755Z,95521.19
2022-08-17T19:25:52.683Z,95518.41
2022-08-17T19:28:36.740Z,95509.78
2022-08-17T19:31:23.293Z,95513.97
2022-08-17T19:33:50.364Z,95521.09
2022-08-17T19:36:21.357Z,95519.31
2022-08-17T19:39:02.984Z,95510.69
2022-08-17T19:41:54.755Z,95517.78
2022-08-17T19:44:38.003Z,95517.91
2022-08-17T19:47:43.777Z,95526.94
2022-08-17T19:50:19.304Z,95518.69
2022-08-17T19:53:03.617Z,95526.31
2022-08-17T19:55:51.375Z,95527.50
2022-08-17T19:59:07.529Z,95546.44
2022-08-17T20:01:54.488Z,95558.75
2022-08-17T20:04:32.638Z,95563.75
2022-08-17T20:07:23.927Z,95555.88
2022-08-17T20:10:02.545Z,95550.56
2022-08-17T20:12:36.615Z,95554.56
2022-08-17T20:15:13.554Z,95556.78
2022-08-17T20:17:46.143Z,95552.53
2022-08-17T20:20:19.957Z,95553.72
2022-08-17T20:22:57.239Z,95544.63
2022-08-17T20:25:46.309Z,95545.72
2022-08-17T20:28:19.604Z,95548.13
2022-08-17T20:30:50.643Z,95560.63
2022-08-17T20:33:36.769Z,95556.09
2022-08-17T20:36:26.217Z,95556.41
2022-08-17T20:38:56.637Z,95557.03
2022-08-17T20:41:26.125Z,95567.56
2022-08-17T20:43:55.219Z,95577.66
2022-08-17T20:46:37.701Z,95574.44
2022-08-17T20:49:22.341Z,95580.09
2022-08-17T20:52:00.722Z,95581.00
2022-08-17T20:54:46.261Z,95598.53
2022-08-17T20:57:31.653Z,95627.94
2022-08-17T21:00:14.629Z,95651.59
2022-08-17T21:02:46.725Z,95671.69
2022-08-17T21:05:37.489Z,95696.78
2022-08-17T21:08:24.971Z,95720.53
2022-08-17T21:10:53.541Z,95716.25
2022-08-17T21:13:33.338Z,95734.84
2022-08-17T21:16:24.631Z,95752.34
2022-08-17T21:19:17.634Z,95754.72
2022-08-17T21:22:04.143Z,95777.72
2022-08-17T21:24:52.443Z,95785.31
2022-08-17T21:27:33.884Z,95796.59
2022-08-17T21:30:10.121Z,95797.47
2022-08-17T21:32:42.117Z,95787.78
2022-08-17T21:35:12.523Z,95785.63
2022-08-17T21:37:42.859Z,95784.03
2022-08-17T21:40:18.826Z,95786.94
2022-08-17T21:42:48.669Z,95783.44
2022-08-17T21:45:30.698Z,95787.22
2022-08-17T21:48:06.937Z,95800.34
2022-08-17T21:50:34.695Z,95794.50
2022-08-17T21:53:03.687Z,95809.28
2022-08-17T21:55:34.193Z,95804.44
2022-08-17T21:58:14.759Z,95811.72
2022-08-17T22:00:44.952Z,95827.84
2022-08-17T22:03:25.821Z,95843.19
2022-08-17T22:05:52.967Z,95863.88
2022-08-17T22:08:23.580Z,95874.38
2022-08-17T22:10:51.649Z,95873.56
2022-08-17T22:13:19.859Z,95871.97
2022-08-17T22:16:27.722Z,95891.56
2022-08-17T22:18:58.375Z,95888.31
2022-08-17T22:21:25.245Z,95896.41
2022-08-17T22:24:18.187Z,95896.66
2022-08-17T22:27:07.521Z,95893.41
2022-08-17T22:29:53.265Z,95894.19
2022-08-17T22:32:38.775Z,95895.00
2022-08-17T22:35:25.501Z,95907.06
2022-08-17T22:37:52.192Z,95921.31
2022-08-17T22:40:33.023Z,95910.84
2022-08-17T22:43:03.267Z,95913.88
2022-08-17T22:45:31.020Z,95918.38
2022-08-17T22:48:00.598Z,95918.91
2022-08-17T22:50:32.901Z,95922.44
2022-08-17T22:53:21.533Z,95918.72
2022-08-17T22:56:13.983Z,95916.84
2022-08-17T22:59:11.454Z,95910.91
2022-08-17T23:01:39.396Z,95905.31
2022-08-17T23:04:12.980Z,95900.47
2022-08-17T23:06:42.243Z,95891.31
2022-08-17T23:09:08.953Z,95878.66
2022-08-17T23:11:48.771Z,95881.91
2022-08-17T23:14:20.026Z,95879.22
2022-08-17T23:16:48.600Z,95878.66
2022-08-17T23:19:21.053Z,95867.13
2022-08-17T23:21:50.907Z,95860.41
2022-08-17T23:24:22.504Z,95863.09
2022-08-17T23:26:49.007Z,95854.47
2022-08-17T23:29:16.500Z,95858.78
2022-08-17T23:31:43.528Z,95860.94
2022-08-17T23:34:12.949Z,95865.75
2022-08-17T23:36:39.407Z,95876.00
2022-08-17T23:39:07.412Z,95862.81
2022-08-17T23:41:38.505Z,95855.03
2022-08-17T23:44:06.294Z,95855.03
2022-08-17T23:46:32.994Z,95855.53
2022-08-17T23:48:59.443Z,95863.59
2022-08-17T23:51:31.203Z,95875.19
2022-08-17T23:54:08.204Z,95873.84
2022-08-17T23:56:40.566Z,95876.78
2022-08-17T23:59:06.915Z,95881.91
